sensor_id;sensor_type;location;lat;lon;timestamp;pressure;altitude;pressure_sealevel;temperature;humidity
59106;BME280;44891;50.204;8.132;2023-03-14T00:03:43;96276.47;;;10.16;90.38
59106;BME280;44891;50.204;8.132;2023-03-14T00:07:45;96284.34;;;10.16;91.44
59106;BME280;44891;50.204;8.132;2023-03-14T00:11:47;96273.34;;;10.14;92.69
59106;BME280;44891;50.204;8.132;2023-03-14T00:15:51;96275.50;;;10.12;93.30
59106;BME280;44891;50.204;8.132;2023-03-14T00:19:52;96286.81;;;10.07;93.75
59106;BME280;44891;50.204;8.132;2023-03-14T00:23:54;96290.56;;;10.01;93.99
59106;BME280;44891;50.204;8.132;2023-03-14T00:27:57;96282.97;;;9.99;95.00
59106;BME280;44891;50.204;8.132;2023-03-14T00:32:00;96280.00;;;10.06;94.66
59106;BME280;44891;50.204;8.132;2023-03-14T00:36:03;96252.28;;;10.00;94.35
59106;BME280;44891;50.204;8.132;2023-03-14T00:40:06;96252.06;;;9.96;95.33
59106;BME280;44891;50.204;8.132;2023-03-14T00:44:08;96232.44;;;9.94;95.67
59106;BME280;44891;50.204;8.132;2023-03-14T00:48:11;96215.44;;;9.91;96.01
59106;BME280;44891;50.204;8.132;2023-03-14T00:52:13;96211.13;;;10.00;95.55
59106;BME280;44891;50.204;8.132;2023-03-14T00:56:15;96204.09;;;9.96;97.14
59106;BME280;44891;50.204;8.132;2023-03-14T01:00:17;96217.13;;;9.82;98.92
59106;BME280;44891;50.204;8.132;2023-03-14T01:04:21;96217.41;;;9.80;99.65
59106;BME280;44891;50.204;8.132;2023-03-14T01:08:23;96233.63;;;9.82;99.06
59106;BME280;44891;50.204;8.132;2023-03-14T01:12:24;96224.78;;;9.78;99.66
59106;BME280;44891;50.204;8.132;2023-03-14T01:16:28;96206.69;;;9.77;97.93
59106;BME280;44891;50.204;8.132;2023-03-14T01:20:32;96215.84;;;9.79;97.56
59106;BME280;44891;50.204;8.132;2023-03-14T01:24:36;96215.38;;;9.77;97.01
59106;BME280;44891;50.204;8.132;2023-03-14T01:28:38;96215.06;;;9.79;96.68
59106;BME280;44891;50.204;8.132;2023-03-14T01:32:40;96189.94;;;9.78;95.92
59106;BME280;44891;50.204;8.132;2023-03-14T01:36:43;96187.84;;;9.75;96.60
59106;BME280;44891;50.204;8.132;2023-03-14T01:40:46;96185.81;;;9.72;97.16
59106;BME280;44891;50.204;8.132;2023-03-14T01:44:49;96169.81;;;9.73;96.51
59106;BME280;44891;50.204;8.132;2023-03-14T01:48:53;96162.50;;;9.70;96.92
59106;BME280;44891;50.204;8.132;2023-03-14T01:52:57;96162.06;;;9.63;96.59
59106;BME280;44891;50.204;8.132;2023-03-14T01:57:01;96160.56;;;9.57;97.68
59106;BME280;44891;50.204;8.132;2023-03-14T02:01:05;96151.72;;;9.53;97.47
59106;BME280;44891;50.204;8.132;2023-03-14T02:05:08;96145.41;;;9.54;97.47
59106;BME280;44891;50.204;8.132;2023-03-14T02:09:13;96119.50;;;9.52;97.27
59106;BME280;44891;50.204;8.132;2023-03-14T02:13:17;96115.88;;;9.48;97.43
59106;BME280;44891;50.204;8.132;2023-03-14T02:17:39;96114.03;;;9.49;97.25
59106;BME280;44891;50.204;8.132;2023-03-14T02:21:57;96120.56;;;9.51;96.77
59106;BME280;44891;50.204;8.132;2023-03-14T02:26:10;96134.00;;;9.45;97.02
59106;BME280;44891;50.204;8.132;2023-03-14T02:30:15;96127.13;;;9.49;96.43
59106;BME280;44891;50.204;8.132;2023-03-14T02:34:19;96136.06;;;9.48;97.16
59106;BME280;44891;50.204;8.132;2023-03-14T02:38:22;96135.50;;;9.51;96.28
59106;BME280;44891;50.204;8.132;2023-03-14T02:42:26;96136.78;;;9.53;93.90
59106;BME280;44891;50.204;8.132;2023-03-14T02:46:29;96131.75;;;9.57;93.38
59106;BME280;44891;50.204;8.132;2023-03-14T02:50:32;96147.19;;;9.59;93.22
59106;BME280;44891;50.204;8.132;2023-03-14T02:54:36;96140.94;;;9.54;93.05
59106;BME280;44891;50.204;8.132;2023-03-14T02:58:38;96138.34;;;9.54;93.43
59106;BME280;44891;50.204;8.132;2023-03-14T03:02:53;96140.75;;;9.51;92.35
59106;BME280;44891;50.204;8.132;2023-03-14T03:06:55;96135.00;;;9.49;92.38
59106;BME280;44891;50.204;8.132;2023-03-14T03:10:57;96131.31;;;9.50;92.49
59106;BME280;44891;50.204;8.132;2023-03-14T03:15:01;96131.59;;;9.48;92.47
59106;BME280;44891;50.204;8.132;2023-03-14T03:19:05;96116.94;;;9.47;91.67
59106;BME280;44891;50.204;8.132;2023-03-14T03:23:07;96112.47;;;9.48;91.72
59106;BME280;44891;50.204;8.132;2023-03-14T03:27:08;96104.34;;;9.49;90.98
59106;BME280;44891;50.204;8.132;2023-03-14T03:31:11;96096.56;;;9.44;89.49
59106;BME280;44891;50.204;8.132;2023-03-14T03:35:15;96093.06;;;9.49;89.37
59106;BME280;44891;50.204;8.132;2023-03-14T03:39:17;96088.13;;;9.47;88.42
59106;BME280;44891;50.204;8.132;2023-03-14T03:43:22;96085.03;;;9.45;88.14
59106;BME280;44891;50.204;8.132;2023-03-14T03:47:24;96093.84;;;9.49;89.19
59106;BME280;44891;50.204;8.132;2023-03-14T03:51:27;96071.28;;;9.53;87.94
59106;BME280;44891;50.204;8.132;2023-03-14T03:55:30;96050.50;;;9.57;88.29
59106;BME280;44891;50.204;8.132;2023-03-14T03:59:32;96063.34;;;9.59;88.31
59106;BME280;44891;50.204;8.132;2023-03-14T04:03:34;96052.59;;;9.60;88.03
59106;BME280;44891;50.204;8.132;2023-03-14T04:07:37;96058.13;;;9.59;88.25
59106;BME280;44891;50.204;8.132;2023-03-14T04:11:40;96043.16;;;9.59;88.55
59106;BME280;44891;50.204;8.132;2023-03-14T04:15:55;96040.63;;;9.54;89.51
59106;BME280;44891;50.204;8.132;2023-03-14T04:19:59;96040.31;;;9.56;89.43
59106;BME280;44891;50.204;8.132;2023-03-14T04:24:10;96052.94;;;9.53;89.15
59106;BME280;44891;50.204;8.132;2023-03-14T04:28:12;96057.19;;;9.49;89.69
59106;BME280;44891;50.204;8.132;2023-03-14T04:32:14;96040.38;;;9.50;89.33
59106;BME280;44891;50.204;8.132;2023-03-14T04:36:17;96044.66;;;9.46;88.39
59106;BME280;44891;50.204;8.132;2023-03-14T04:40:20;96031.28;;;9.48;87.26
59106;BME280;44891;50.204;8.132;2023-03-14T04:44:25;96022.34;;;9.49;86.68
59106;BME280;44891;50.204;8.132;2023-03-14T04:48:28;96019.72;;;9.49;86.28
59106;BME280;44891;50.204;8.132;2023-03-14T04:52:31;96007.69;;;9.48;86.17
59106;BME280;44891;50.204;8.132;2023-03-14T04:56:36;96019.72;;;9.49;86.53
59106;BME280;44891;50.204;8.132;2023-03-14T05:00:38;96018.25;;;9.43;87.43
59106;BME280;44891;50.204;8.132;2023-03-14T05:05:01;96027.03;;;9.52;86.96
59106;BME280;44891;50.204;8.132;2023-03-14T05:09:17;96023.34;;;9.53;86.14
59106;BME280;44891;50.204;8.132;2023-03-14T05:13:23;96022.28;;;9.54;86.77
59106;BME280;44891;50.204;8.132;2023-03-14T05:17:40;96024.13;;;9.53;86.90
59106;BME280;44891;50.204;8.132;2023-03-14T05:22:03;96028.34;;;9.49;86.89
59106;BME280;44891;50.204;8.132;2023-03-14T05:26:24;96026.44;;;9.55;86.97
59106;BME280;44891;50.204;8.132;2023-03-14T05:30:34;96007.41;;;9.49;87.93
59106;BME280;44891;50.204;8.132;2023-03-14T05:34:39;95980.72;;;9.47;86.96
59106;BME280;44891;50.204;8.132;2023-03-14T05:38:51;95985.66;;;9.49;87.27
59106;BME280;44891;50.204;8.132;2023-03-14T05:43:13;95973.44;;;9.44;88.46
59106;BME280;44891;50.204;8.132;2023-03-14T05:47:30;95962.97;;;9.44;88.68
59106;BME280;44891;50.204;8.132;2023-03-14T05:51:55;95998.78;;;9.30;89.38
59106;BME280;44891;50.204;8.132;2023-03-14T05:56:20;95974.94;;;9.13;92.19
59106;BME280;44891;50.204;8.132;2023-03-14T06:00:32;95965.13;;;9.05;95.83
59106;BME280;44891;50.204;8.132;2023-03-14T06:04:48;95969.47;;;8.90;95.48
59106;BME280;44891;50.204;8.132;2023-03-14T06:08:50;95967.50;;;8.82;96.82
59106;BME280;44891;50.204;8.132;2023-03-14T06:12:52;95973.44;;;8.88;95.31
59106;BME280;44891;50.204;8.132;2023-03-14T06:16:55;95971.59;;;8.88;96.46
59106;BME280;44891;50.204;8.132;2023-03-14T06:21:00;95979.50;;;8.83;94.56
59106;BME280;44891;50.204;8.132;2023-03-14T06:25:03;95966.84;;;8.90;93.76
59106;BME280;44891;50.204;8.132;2023-03-14T06:29:05;95954.78;;;8.94;91.32
59106;BME280;44891;50.204;8.132;2023-03-14T06:33:08;95965.66;;;9.02;91.41
59106;BME280;44891;50.204;8.132;2023-03-14T06:37:12;95967.16;;;9.08;91.11
59106;BME280;44891;50.204;8.132;2023-03-14T06:41:14;95959.59;;;9.06;92.15
59106;BME280;44891;50.204;8.132;2023-03-14T06:45:18;95960.31;;;9.12;90.90
59106;BME280;44891;50.204;8.132;2023-03-14T06:49:21;95959.94;;;9.18;91.45
59106;BME280;44891;50.204;8.132;2023-03-14T06:53:28;95956.47;;;9.23;90.62
59106;BME280;44891;50.204;8.132;2023-03-14T06:57:33;95939.97;;;9.22;91.00
59106;BME280;44891;50.204;8.132;2023-03-14T07:01:35;95941.44;;;9.29;91.57
59106;BME280;44891;50.204;8.132;2023-03-14T07:05:41;95940.59;;;9.33;92.44
59106;BME280;44891;50.204;8.132;2023-03-14T07:09:45;95945.47;;;9.40;90.54
59106;BME280;44891;50.204;8.132;2023-03-14T07:13:47;95940.25;;;9.40;90.87
59106;BME280;44891;50.204;8.132;2023-03-14T07:17:49;95949.88;;;9.44;90.67
59106;BME280;44891;50.204;8.132;2023-03-14T07:21:53;95949.00;;;9.49;90.75
59106;BME280;44891;50.204;8.132;2023-03-14T07:26:00;95948.44;;;9.52;91.58
59106;BME280;44891;50.204;8.132;2023-03-14T07:30:04;95956.28;;;9.52;92.24
59106;BME280;44891;50.204;8.132;2023-03-14T07:34:06;95961.03;;;9.50;91.34
59106;BME280;44891;50.204;8.132;2023-03-14T07:38:12;95964.84;;;9.58;91.24
59106;BME280;44891;50.204;8.132;2023-03-14T07:42:27;95970.56;;;9.60;90.60
59106;BME280;44891;50.204;8.132;2023-03-14T07:46:44;95962.91;;;9.63;90.54
59106;BME280;44891;50.204;8.132;2023-03-14T07:50:48;95965.75;;;9.67;90.26
59106;BME280;44891;50.204;8.132;2023-03-14T07:54:50;95970.53;;;9.78;89.50
59106;BME280;44891;50.204;8.132;2023-03-14T07:58:53;95963.38;;;9.84;88.84
59106;BME280;44891;50.204;8.132;2023-03-14T08:02:54;95955.03;;;9.96;88.73
59106;BME280;44891;50.204;8.132;2023-03-14T08:06:56;95970.41;;;10.16;88.92
59106;BME280;44891;50.204;8.132;2023-03-14T08:11:02;95955.94;;;10.19;88.15
59106;BME280;44891;50.204;8.132;2023-03-14T08:15:06;95957.28;;;10.16;87.81
59106;BME280;44891;50.204;8.132;2023-03-14T08:19:07;95955.09;;;10.23;86.80
59106;BME280;44891;50.204;8.132;2023-03-14T08:23:09;95946.06;;;10.29;87.92
59106;BME280;44891;50.204;8.132;2023-03-14T08:27:11;95965.50;;;10.28;86.66
59106;BME280;44891;50.204;8.132;2023-03-14T08:31:16;95963.75;;;10.38;85.92
59106;BME280;44891;50.204;8.132;2023-03-14T08:35:18;95968.72;;;10.39;85.53
59106;BME280;44891;50.204;8.132;2023-03-14T08:39:20;95968.31;;;10.32;83.79
59106;BME280;44891;50.204;8.132;2023-03-14T08:43:22;95988.91;;;10.39;85.00
59106;BME280;44891;50.204;8.132;2023-03-14T08:47:25;95990.47;;;10.40;85.35
59106;BME280;44891;50.204;8.132;2023-03-14T08:51:27;95993.00;;;10.31;85.37
59106;BME280;44891;50.204;8.132;2023-03-14T08:55:29;95980.66;;;10.31;86.37
59106;BME280;44891;50.204;8.132;2023-03-14T08:59:31;95993.28;;;10.29;85.67
59106;BME280;44891;50.204;8.132;2023-03-14T09:03:34;95991.94;;;10.32;85.53
59106;BME280;44891;50.204;8.132;2023-03-14T09:07:36;95991.94;;;10.46;86.58
59106;BME280;44891;50.204;8.132;2023-03-14T09:11:38;96005.53;;;10.48;85.86
59106;BME280;44891;50.204;8.132;2023-03-14T09:15:40;96002.44;;;10.46;86.08
59106;BME280;44891;50.204;8.132;2023-03-14T09:19:44;96006.31;;;10.48;85.43
59106;BME280;44891;50.204;8.132;2023-03-14T09:23:46;95998.16;;;10.50;85.99
59106;BME280;44891;50.204;8.132;2023-03-14T09:27:47;96005.53;;;10.48;85.92
59106;BME280;44891;50.204;8.132;2023-03-14T09:31:49;96010.28;;;10.46;85.84
59106;BME280;44891;50.204;8.132;2023-03-14T09:35:52;96004.28;;;10.45;87.77
59106;BME280;44891;50.204;8.132;2023-03-14T09:39:54;96013.50;;;10.43;88.80
59106;BME280;44891;50.204;8.132;2023-03-14T09:43:59;96013.00;;;10.41;90.82
59106;BME280;44891;50.204;8.132;2023-03-14T09:48:02;96012.41;;;10.30;90.95
59106;BME280;44891;50.204;8.132;2023-03-14T09:52:06;96010.22;;;10.37;90.35
59106;BME280;44891;50.204;8.132;2023-03-14T09:56:13;96008.63;;;10.36;89.74
59106;BME280;44891;50.204;8.132;2023-03-14T10:00:17;95998.63;;;10.24;89.95
59106;BME280;44891;50.204;8.132;2023-03-14T10:04:21;95990.38;;;10.31;90.56
59106;BME280;44891;50.204;8.132;2023-03-14T10:08:25;95998.56;;;10.43;89.41
59106;BME280;44891;50.204;8.132;2023-03-14T10:12:30;95998.44;;;10.48;88.59
59106;BME280;44891;50.204;8.132;2023-03-14T10:16:33;95990.00;;;10.51;88.61
59106;BME280;44891;50.204;8.132;2023-03-14T10:20:36;95996.19;;;10.55;91.15
59106;BME280;44891;50.204;8.132;2023-03-14T10:24:40;95989.69;;;10.67;88.93
59106;BME280;44891;50.204;8.132;2023-03-14T10:28:47;95996.31;;;10.64;86.57
59106;BME280;44891;50.204;8.132;2023-03-14T10:32:49;96004.56;;;10.71;84.61
59106;BME280;44891;50.204;8.132;2023-03-14T10:36:55;96005.13;;;10.82;85.25
59106;BME280;44891;50.204;8.132;2023-03-14T10:40:58;96009.03;;;10.84;84.39
59106;BME280;44891;50.204;8.132;2023-03-14T10:45:01;96020.88;;;10.82;85.43
59106;BME280;44891;50.204;8.132;2023-03-14T10:49:04;96015.53;;;10.73;86.63
59106;BME280;44891;50.204;8.132;2023-03-14T10:53:07;96017.19;;;10.69;89.11
59106;BME280;44891;50.204;8.132;2023-03-14T10:57:11;96020.72;;;10.65;91.68
59106;BME280;44891;50.204;8.132;2023-03-14T11:01:16;96017.00;;;10.66;90.78
59106;BME280;44891;50.204;8.132;2023-03-14T11:05:23;96016.72;;;10.67;90.38
59106;BME280;44891;50.204;8.132;2023-03-14T11:09:28;96018.00;;;10.70;91.31
59106;BME280;44891;50.204;8.132;2023-03-14T11:13:36;96028.28;;;10.80;91.91
59106;BME280;44891;50.204;8.132;2023-03-14T11:17:40;96030.72;;;10.90;91.91
59106;BME280;44891;50.204;8.132;2023-03-14T11:21:44;96042.06;;;11.13;93.40
59106;BME280;44891;50.204;8.132;2023-03-14T11:25:49;96049.09;;;11.04;93.06
59106;BME280;44891;50.204;8.132;2023-03-14T11:29:57;96070.75;;;10.82;96.25
59106;BME280;44891;50.204;8.132;2023-03-14T11:34:04;96159.22;;;10.68;100.00
59106;BME280;44891;50.204;8.132;2023-03-14T11:38:11;96208.06;;;8.74;91.28
59106;BME280;44891;50.204;8.132;2023-03-14T11:42:15;96216.25;;;8.28;95.21
59106;BME280;44891;50.204;8.132;2023-03-14T11:46:20;96235.66;;;8.16;96.24
59106;BME280;44891;50.204;8.132;2023-03-14T11:50:24;96252.44;;;8.05;99.08
59106;BME280;44891;50.204;8.132;2023-03-14T11:54:28;96268.94;;;8.01;99.62
59106;BME280;44891;50.204;8.132;2023-03-14T11:58:34;96275.25;;;7.95;100.00
59106;BME280;44891;50.204;8.132;2023-03-14T12:02:43;96282.22;;;8.09;100.00
59106;BME280;44891;50.204;8.132;2023-03-14T12:06:48;96312.53;;;8.15;100.00
59106;BME280;44891;50.204;8.132;2023-03-14T12:10:51;96319.84;;;8.13;99.16
59106;BME280;44891;50.204;8.132;2023-03-14T12:14:55;96332.66;;;8.64;97.05
59106;BME280;44891;50.204;8.132;2023-03-14T12:23:16;96339.38;;;11.15;75.99
59106;BME280;44891;50.204;8.132;2023-03-14T12:31:41;96352.69;;;9.76;79.17
59106;BME280;44891;50.204;8.132;2023-03-14T12:35:44;96352.72;;;9.18;84.99
59106;BME280;44891;50.204;8.132;2023-03-14T12:39:49;96364.22;;;8.83;86.79
59106;BME280;44891;50.204;8.132;2023-03-14T12:43:56;96372.97;;;8.63;84.23
59106;BME280;44891;50.204;8.132;2023-03-14T12:48:07;96393.41;;;8.56;82.38
59106;BME280;44891;50.204;8.132;2023-03-14T12:52:12;96389.06;;;8.41;83.80
59106;BME280;44891;50.204;8.132;2023-03-14T12:56:20;96410.44;;;8.54;86.12
59106;BME280;44891;50.204;8.132;2023-03-14T13:00:23;96423.75;;;8.62;84.27
59106;BME280;44891;50.204;8.132;2023-03-14T13:04:29;96427.72;;;8.50;86.21
59106;BME280;44891;50.204;8.132;2023-03-14T13:08:34;96418.31;;;14.77;63.12
59106;BME280;44891;50.204;8.132;2023-03-14T13:12:40;96430.59;;;14.90;59.19
59106;BME280;44891;50.204;8.132;2023-03-14T13:16:44;96443.13;;;11.69;67.39
59106;BME280;44891;50.204;8.132;2023-03-14T13:20:46;96470.88;;;10.09;75.21
59106;BME280;44891;50.204;8.132;2023-03-14T13:24:50;96517.44;;;9.20;82.36
59106;BME280;44891;50.204;8.132;2023-03-14T13:28:54;96531.50;;;8.69;80.16
59106;BME280;44891;50.204;8.132;2023-03-14T13:32:56;96551.47;;;8.09;81.11
59106;BME280;44891;50.204;8.132;2023-03-14T13:36:58;96560.38;;;7.93;83.21
59106;BME280;44891;50.204;8.132;2023-03-14T13:41:03;96576.59;;;8.00;85.26
59106;BME280;44891;50.204;8.132;2023-03-14T13:45:09;96606.38;;;8.04;85.60
59106;BME280;44891;50.204;8.132;2023-03-14T13:49:16;96608.44;;;7.82;85.12
59106;BME280;44891;50.204;8.132;2023-03-14T13:53:21;96637.66;;;7.58;84.12
59106;BME280;44891;50.204;8.132;2023-03-14T13:57:23;96640.47;;;7.36;85.03
59106;BME280;44891;50.204;8.132;2023-03-14T14:01:26;96668.84;;;7.18;87.02
59106;BME280;44891;50.204;8.132;2023-03-14T14:05:29;96676.66;;;7.18;88.61
59106;BME280;44891;50.204;8.132;2023-03-14T14:09:35;96680.91;;;7.29;86.66
59106;BME280;44891;50.204;8.132;2023-03-14T14:13:38;96699.44;;;6.85;90.81
59106;BME280;44891;50.204;8.132;2023-03-14T14:17:42;96728.09;;;6.75;90.15
59106;BME280;44891;50.204;8.132;2023-03-14T14:21:45;96736.63;;;6.38;90.22
59106;BME280;44891;50.204;8.132;2023-03-14T14:25:48;96760.81;;;6.29;91.77
59106;BME280;44891;50.204;8.132;2023-03-14T14:29:57;96780.66;;;6.08;95.97
59106;BME280;44891;50.204;8.132;2023-03-14T14:34:01;96788.41;;;6.03;91.93
59106;BME280;44891;50.204;8.132;2023-03-14T14:38:08;96803.81;;;5.87;92.88
59106;BME280;44891;50.204;8.132;2023-03-14T14:42:14;96820.22;;;5.66;95.17
59106;BME280;44891;50.204;8.132;2023-03-14T14:46:17;96822.91;;;5.71;94.32
59106;BME280;44891;50.204;8.132;2023-03-14T14:50:26;96836.53;;;5.56;92.07
59106;BME280;44891;50.204;8.132;2023-03-14T14:54:33;96848.19;;;5.54;93.11
59106;BME280;44891;50.204;8.132;2023-03-14T14:58:36;96844.63;;;5.60;94.68
59106;BME280;44891;50.204;8.132;2023-03-14T15:02:39;96847.69;;;5.73;93.79
59106;BME280;44891;50.204;8.132;2023-03-14T15:06:47;96856.75;;;5.88;94.52
59106;BME280;44891;50.204;8.132;2023-03-14T15:10:50;96862.50;;;5.90;92.15
59106;BME280;44891;50.204;8.132;2023-03-14T15:14:52;96859.91;;;6.12;93.47
59106;BME280;44891;50.204;8.132;2023-03-14T15:18:59;96868.56;;;6.39;91.67
59106;BME280;44891;50.204;8.132;2023-03-14T15:23:04;96871.91;;;6.57;92.37
59106;BME280;44891;50.204;8.132;2023-03-14T15:27:09;96898.47;;;6.32;93.31
59106;BME280;44891;50.204;8.132;2023-03-14T15:31:13;96903.41;;;6.28;93.06
59106;BME280;44891;50.204;8.132;2023-03-14T15:35:16;96916.47;;;6.33;94.40
59106;BME280;44891;50.204;8.132;2023-03-14T15:39:19;96919.34;;;6.32;94.03
59106;BME280;44891;50.204;8.132;2023-03-14T15:43:21;96925.81;;;6.29;92.11
59106;BME280;44891;50.204;8.132;2023-03-14T15:47:22;96920.41;;;6.58;92.40
59106;BME280;44891;50.204;8.132;2023-03-14T15:51:24;96928.25;;;6.58;90.83
59106;BME280;44891;50.204;8.132;2023-03-14T15:55:27;96939.19;;;6.54;88.93
59106;BME280;44891;50.204;8.132;2023-03-14T15:59:29;96939.34;;;6.48;90.26
59106;BME280;44891;50.204;8.132;2023-03-14T16:03:31;96966.94;;;6.22;91.92
59106;BME280;44891;50.204;8.132;2023-03-14T16:07:33;96979.56;;;6.13;91.80
59106;BME280;44891;50.204;8.132;2023-03-14T16:11:36;96986.63;;;5.96;97.38
59106;BME280;44891;50.204;8.132;2023-03-14T16:15:38;96999.94;;;5.49;97.32
59106;BME280;44891;50.204;8.132;2023-03-14T16:19:40;97000.16;;;5.02;98.88
59106;BME280;44891;50.204;8.132;2023-03-14T16:23:42;97024.38;;;4.91;99.50
59106;BME280;44891;50.204;8.132;2023-03-14T16:27:45;97022.88;;;4.95;96.71
59106;BME280;44891;50.204;8.132;2023-03-14T16:31:47;97034.38;;;4.82;98.91
59106;BME280;44891;50.204;8.132;2023-03-14T16:35:52;97055.16;;;4.82;100.00
59106;BME280;44891;50.204;8.132;2023-03-14T16:39:54;97062.38;;;4.92;98.95
59106;BME280;44891;50.204;8.132;2023-03-14T16:43:57;97073.81;;;4.79;97.79
59106;BME280;44891;50.204;8.132;2023-03-14T16:47:59;97074.50;;;4.75;99.01
59106;BME280;44891;50.204;8.132;2023-03-14T16:52:01;97081.06;;;4.89;98.72
59106;BME280;44891;50.204;8.132;2023-03-14T16:56:03;97103.09;;;4.86;96.84
59106;BME280;44891;50.204;8.132;2023-03-14T17:00:07;97104.59;;;4.82;97.08
59106;BME280;44891;50.204;8.132;2023-03-14T17:04:11;97113.72;;;4.85;97.49
59106;BME280;44891;50.204;8.132;2023-03-14T17:08:13;97122.22;;;4.69;96.97
59106;BME280;44891;50.204;8.132;2023-03-14T17:12:15;97138.84;;;4.68;95.61
59106;BME280;44891;50.204;8.132;2023-03-14T17:16:18;97146.88;;;4.66;96.43
59106;BME280;44891;50.204;8.132;2023-03-14T17:20:20;97157.81;;;4.68;95.45
59106;BME280;44891;50.204;8.132;2023-03-14T17:24:22;97191.38;;;4.34;98.26
59106;BME280;44891;50.204;8.132;2023-03-14T17:28:24;97213.59;;;3.89;98.43
59106;BME280;44891;50.204;8.132;2023-03-14T17:32:28;97219.84;;;3.51;98.09
59106;BME280;44891;50.204;8.132;2023-03-14T17:36:30;97217.53;;;3.61;96.34
59106;BME280;44891;50.204;8.132;2023-03-14T17:40:32;97235.41;;;3.33;98.24
59106;BME280;44891;50.204;8.132;2023-03-14T17:44:34;97226.91;;;3.44;98.79
59106;BME280;44891;50.204;8.132;2023-03-14T17:48:37;97229.72;;;3.61;97.81
59106;BME280;44891;50.204;8.132;2023-03-14T17:52:39;97241.75;;;3.55;97.26
59106;BME280;44891;50.204;8.132;2023-03-14T17:56:41;97253.00;;;3.49;97.08
59106;BME280;44891;50.204;8.132;2023-03-14T18:00:43;97258.91;;;3.56;96.28
59106;BME280;44891;50.204;8.132;2023-03-14T18:04:46;97265.19;;;3.85;95.75
59106;BME280;44891;50.204;8.132;2023-03-14T18:08:48;97282.28;;;3.93;96.62
59106;BME280;44891;50.204;8.132;2023-03-14T18:12:50;97287.75;;;3.85;95.91
59106;BME280;44891;50.204;8.132;2023-03-14T18:16:52;97297.56;;;3.82;96.77
59106;BME280;44891;50.204;8.132;2023-03-14T18:20:56;97295.34;;;3.86;96.81
59106;BME280;44891;50.204;8.132;2023-03-14T18:24:57;97297.63;;;3.94;97.30
59106;BME280;44891;50.204;8.132;2023-03-14T18:28:59;97316.25;;;3.91;96.57
59106;BME280;44891;50.204;8.132;2023-03-14T18:33:02;97331.97;;;3.78;98.12
59106;BME280;44891;50.204;8.132;2023-03-14T18:37:05;97346.84;;;3.71;95.89
59106;BME280;44891;50.204;8.132;2023-03-14T18:41:07;97352.91;;;3.83;94.05
59106;BME280;44891;50.204;8.132;2023-03-14T18:45:10;97361.13;;;3.80;94.73
59106;BME280;44891;50.204;8.132;2023-03-14T18:49:12;97367.06;;;3.62;95.38
59106;BME280;44891;50.204;8.132;2023-03-14T18:53:15;97365.28;;;3.63;93.89
59106;BME280;44891;50.204;8.132;2023-03-14T18:57:17;97366.56;;;3.53;93.21
59106;BME280;44891;50.204;8.132;2023-03-14T19:01:19;97364.47;;;3.62;84.13
59106;BME280;44891;50.204;8.132;2023-03-14T19:05:22;97374.56;;;3.52;84.69
59106;BME280;44891;50.204;8.132;2023-03-14T19:09:25;97371.81;;;3.47;85.29
59106;BME280;44891;50.204;8.132;2023-03-14T19:13:27;97380.50;;;3.59;80.75
59106;BME280;44891;50.204;8.132;2023-03-14T19:17:30;97375.72;;;3.56;81.36
59106;BME280;44891;50.204;8.132;2023-03-14T19:21:32;97391.44;;;3.61;83.27
59106;BME280;44891;50.204;8.132;2023-03-14T19:25:36;97394.94;;;3.73;82.96
59106;BME280;44891;50.204;8.132;2023-03-14T19:29:38;97405.81;;;3.64;85.76
59106;BME280;44891;50.204;8.132;2023-03-14T19:33:41;97408.84;;;3.61;86.02
59106;BME280;44891;50.204;8.132;2023-03-14T19:37:43;97420.75;;;3.68;84.94
59106;BME280;44891;50.204;8.132;2023-03-14T19:41:46;97424.34;;;3.67;87.01
59106;BME280;44891;50.204;8.132;2023-03-14T19:45:48;97419.16;;;3.67;86.21
59106;BME280;44891;50.204;8.132;2023-03-14T19:49:50;97426.66;;;3.75;85.74
59106;BME280;44891;50.204;8.132;2023-03-14T19:53:52;97437.28;;;3.74;85.85
59106;BME280;44891;50.204;8.132;2023-03-14T19:57:55;97442.53;;;3.67;86.96
59106;BME280;44891;50.204;8.132;2023-03-14T20:01:57;97450.69;;;3.71;86.80
59106;BME280;44891;50.204;8.132;2023-03-14T20:06:02;97462.16;;;3.63;88.53
59106;BME280;44891;50.204;8.132;2023-03-14T20:10:04;97489.34;;;3.54;89.72
59106;BME280;44891;50.204;8.132;2023-03-14T20:14:08;97481.66;;;3.41;90.59
59106;BME280;44891;50.204;8.132;2023-03-14T20:18:10;97486.63;;;3.42;91.88
59106;BME280;44891;50.204;8.132;2023-03-14T20:22:12;97483.31;;;3.60;86.95
59106;BME280;44891;50.204;8.132;2023-03-14T20:26:14;97502.47;;;3.66;85.91
59106;BME280;44891;50.204;8.132;2023-03-14T20:30:18;97510.41;;;3.71;87.22
59106;BME280;44891;50.204;8.132;2023-03-14T20:34:21;97512.97;;;3.77;85.38
59106;BME280;44891;50.204;8.132;2023-03-14T20:38:23;97524.66;;;3.87;85.94
59106;BME280;44891;50.204;8.132;2023-03-14T20:42:26;97526.75;;;3.78;86.21
59106;BME280;44891;50.204;8.132;2023-03-14T20:46:29;97545.38;;;3.68;87.22
59106;BME280;44891;50.204;8.132;2023-03-14T20:50:31;97544.75;;;3.73;86.76
59106;BME280;44891;50.204;8.132;2023-03-14T20:54:32;97552.44;;;3.54;88.40
59106;BME280;44891;50.204;8.132;2023-03-14T20:58:34;97565.00;;;3.64;87.99
59106;BME280;44891;50.204;8.132;2023-03-14T21:02:37;97566.00;;;3.63;88.09
59106;BME280;44891;50.204;8.132;2023-03-14T21:06:39;97567.78;;;3.63;89.09
59106;BME280;44891;50.204;8.132;2023-03-14T21:10:41;97582.97;;;3.59;87.70
59106;BME280;44891;50.204;8.132;2023-03-14T21:14:43;97586.63;;;3.51;89.21
59106;BME280;44891;50.204;8.132;2023-03-14T21:18:47;97589.22;;;3.51;89.53
59106;BME280;44891;50.204;8.132;2023-03-14T21:22:48;97588.25;;;3.46;89.88
59106;BME280;44891;50.204;8.132;2023-03-14T21:26:50;97602.81;;;3.47;89.21
59106;BME280;44891;50.204;8.132;2023-03-14T21:30:52;97601.63;;;3.43;90.89
59106;BME280;44891;50.204;8.132;2023-03-14T21:34:55;97612.19;;;3.48;88.34
59106;BME280;44891;50.204;8.132;2023-03-14T21:38:57;97625.94;;;3.55;88.04
59106;BME280;44891;50.204;8.132;2023-03-14T21:42:59;97630.34;;;3.48;87.96
59106;BME280;44891;50.204;8.132;2023-03-14T21:47:01;97632.81;;;3.36;89.67
59106;BME280;44891;50.204;8.132;2023-03-14T21:51:05;97633.56;;;3.43;87.14
59106;BME280;44891;50.204;8.132;2023-03-14T21:55:07;97649.97;;;3.44;86.65